Terminal Aerodrome Forecast
Issued by NWS

Home | Current Version | Previous Version | Graphics & Text | Print | Product List | Glossary On
Versions: 1 2 3 4 5 6 7 8 9 10 11 12 13 14 15 16
000
FTUS42 KMHX 200156 AAA
TAFPGV
TAF AMD
KPGV 200156Z 2002/2024 00000KT P6SM SKC
      TEMPO 2002/2006 1 1/2SM BR
     FM200600 00000KT 1 1/2SM BR SKC
     FM201200 02003KT P6SM SKC
      AMD LTD TO CLD VIS AND WIND=

USA.gov is the U.S. government's official web portal to all federal, state and local government web resources and services.